Terminal Aerodrome Forecast
Issued by NWS

Home | Current Version | Previous Version | Text Only | Print | Product List | Glossary On
Versions: 1 2 3 4 5 6 7 8 9 10 11 12 13 14 15 16 17
000
FTUS42 KGSP 281138
TAFAND
TAF
KAND 281138Z 2812/2912 00000KT P6SM FEW060 BKN250
     FM281700 16004KT P6SM SCT060 BKN250
     FM282100 17006KT P6SM BKN060 PROB30 2821/2903 4SM TSRA BKN040CB
     FM290300 00000KT P6SM FEW060 BKN250=

USA.gov is the U.S. government's official web portal to all federal, state and local government web resources and services.